Time;durP1;ratioP1;P1;durP2;ratioP2;P2;SDS_P1;SDS_P2;PMS_P1;PMS_P2;Temp;Humidity;BMP_temperature;BMP_pressure;BME280_temperature;BME280_humidity;BME280_pressure;Samples;Min_cycle;Max_cycle;Signal;HPM_P1;HPM_P2
2023/09/30 00:01:58;;;;;;;15.93;5.60;;;16.00;76.20;;;;;;5033476;28;20039;-67
2023/09/30 00:04:24;;;;;;;14.70;5.03;;;16.10;76.30;;;;;;5032229;28;20037;-68
2023/09/30 00:06:50;;;;;;;13.13;5.45;;;16.00;76.20;;;;;;5039150;28;20036;-68
2023/09/30 00:09:15;;;;;;;13.30;5.68;;;16.10;76.30;;;;;;5033433;28;20030;-68
2023/09/30 00:11:41;;;;;;;15.35;6.63;;;16.00;76.30;;;;;;5036126;28;20045;-68
2023/09/30 00:14:07;;;;;;;12.75;5.45;;;16.00;76.40;;;;;;5034134;28;20403;-68
2023/09/30 00:16:34;;;;;;;13.35;5.20;;;16.00;76.40;;;;;;5035586;28;20033;-68
2023/09/30 00:19:02;;;;;;;14.88;4.90;;;16.10;76.50;;;;;;5031893;28;20038;-69
2023/09/30 00:21:27;;;;;;;12.05;4.68;;;16.10;76.50;;;;;;5028628;28;20033;-68
2023/09/30 00:23:53;;;;;;;14.13;5.15;;;16.00;76.40;;;;;;5032010;28;20120;-68
2023/09/30 00:26:19;;;;;;;15.60;5.53;;;16.00;76.50;;;;;;5050446;28;20029;-68
2023/09/30 00:28:46;;;;;;;14.13;4.75;;;16.00;76.50;;;;;;5033598;28;20025;-68
2023/09/30 00:31:12;;;;;;;15.38;6.03;;;16.00;76.50;;;;;;5036236;28;20366;-68
2023/09/30 00:33:38;;;;;;;13.30;5.32;;;16.00;76.50;;;;;;5012912;28;20045;-68
2023/09/30 00:36:11;;;;;;;13.25;5.40;;;16.00;76.50;;;;;;5036313;28;20116;-68
2023/09/30 00:38:37;;;;;;;13.27;5.63;;;16.00;76.60;;;;;;5034982;28;20041;-68
2023/09/30 00:41:04;;;;;;;11.75;5.65;;;16.00;76.50;;;;;;5033518;28;20122;-67
2023/09/30 00:43:29;;;;;;;13.13;5.05;;;16.00;76.60;;;;;;5045440;28;20099;-67
2023/09/30 00:46:36;;;;;;;13.38;5.80;;;16.00;76.60;;;;;;5032792;28;20528;-68
2023/09/30 00:49:02;;;;;;;13.55;5.18;;;16.00;76.50;;;;;;5034368;28;20177;-68
2023/09/30 00:51:29;;;;;;;12.10;5.18;;;15.90;76.60;;;;;;5036253;28;20030;-68
2023/09/30 00:53:58;;;;;;;11.35;5.00;;;15.90;76.60;;;;;;5043118;28;20029;-67
2023/09/30 00:56:29;;;;;;;12.73;4.95;;;15.90;76.60;;;;;;5052089;28;20065;-67
2023/09/30 00:58:55;;;;;;;11.82;4.68;;;15.90;76.70;;;;;;5034555;28;20033;-68
2023/09/30 01:01:21;;;;;;;10.90;4.50;;;15.90;76.60;;;;;;5032279;28;20033;-67
2023/09/30 01:03:47;;;;;;;14.25;4.50;;;15.90;76.70;;;;;;5034543;28;20418;-68
2023/09/30 01:06:13;;;;;;;13.10;5.05;;;15.90;76.70;;;;;;5030744;28;20513;-67
2023/09/30 01:08:39;;;;;;;14.20;5.05;;;15.90;76.70;;;;;;5033408;28;20028;-68
2023/09/30 01:11:06;;;;;;;14.00;5.03;;;15.90;77.40;;;;;;5031537;28;20018;-67
2023/09/30 01:13:36;;;;;;;13.05;5.03;;;15.90;76.70;;;;;;5031676;28;20026;-68
2023/09/30 01:16:05;;;;;;;12.80;5.28;;;15.90;76.80;;;;;;5033994;28;20026;-67
2023/09/30 01:18:32;;;;;;;10.00;4.82;;;15.80;76.70;;;;;;5032258;28;20172;-67
2023/09/30 01:21:03;;;;;;;12.13;5.40;;;15.80;76.80;;;;;;5029131;28;20033;-68
2023/09/30 01:23:29;;;;;;;;;;;15.80;76.80;;;;;;5030254;28;20367;-67
2023/09/30 01:25:55;;;;;;;11.32;4.53;;;15.80;76.80;;;;;;5032373;28;19944;-68
2023/09/30 01:28:21;;;;;;;11.38;4.90;;;15.80;76.90;;;;;;5032388;28;20499;-68
2023/09/30 01:30:47;;;;;;;9.77;4.63;;;15.80;76.90;;;;;;5031683;28;20044;-68
2023/09/30 01:33:12;;;;;;;14.48;5.45;;;15.80;77.00;;;;;;5044009;28;20029;-67
2023/09/30 01:35:38;;;;;;;11.48;4.85;;;15.80;77.00;;;;;;5035206;28;20029;-68
2023/09/30 01:38:04;;;;;;;15.05;5.85;;;15.70;76.90;;;;;;5031032;28;20036;-68
2023/09/30 01:40:30;;;;;;;11.38;5.25;;;15.70;76.90;;;;;;5030702;28;20042;-67
2023/09/30 01:42:56;;;;;;;12.98;5.50;;;15.70;76.90;;;;;;5033516;28;20064;-68
2023/09/30 01:45:22;;;;;;;10.25;4.82;;;15.70;76.90;;;;;;5032718;28;20108;-68
2023/09/30 01:47:48;;;;;;;12.02;5.22;;;15.70;76.90;;;;;;5038737;28;20036;-67
2023/09/30 01:50:14;;;;;;;18.38;6.10;;;15.70;77.60;;;;;;5031600;28;20037;-68
2023/09/30 01:52:39;;;;;;;12.20;5.50;;;15.70;77.00;;;;;;5033197;28;20035;-69
2023/09/30 01:55:06;;;;;;;10.82;5.65;;;15.70;77.00;;;;;;5032893;28;20082;-69
2023/09/30 01:57:32;;;;;;;11.43;5.32;;;15.70;77.00;;;;;;5013969;28;20029;-69
2023/09/30 01:59:57;;;;;;;12.93;5.78;;;15.60;77.00;;;;;;5033890;28;20029;-69
2023/09/30 02:02:23;;;;;;;12.25;5.50;;;15.60;77.00;;;;;;5034778;28;20033;-70
2023/09/30 02:04:49;;;;;;;12.20;5.82;;;15.60;77.00;;;;;;5035215;28;20038;-70
2023/09/30 02:07:15;;;;;;;12.52;5.13;;;15.60;77.00;;;;;;5034880;28;20040;-70
2023/09/30 02:09:40;;;;;;;12.88;5.60;;;15.60;77.10;;;;;;5033168;28;20037;-69
2023/09/30 02:12:08;;;;;;;10.75;5.40;;;15.60;77.10;;;;;;5033542;28;20040;-69
2023/09/30 02:14:34;;;;;;;14.23;5.63;;;15.60;77.00;;;;;;5034073;28;20404;-69
2023/09/30 02:17:00;;;;;;;12.07;5.82;;;15.50;77.00;;;;;;5033279;28;20053;-69
2023/09/30 02:19:27;;;;;;;12.00;5.22;;;15.60;77.00;;;;;;5033525;28;20132;-69
2023/09/30 02:21:56;;;;;;;15.00;5.85;;;15.50;77.00;;;;;;5029054;28;20029;-69
2023/09/30 02:24:23;;;;;;;13.30;5.13;;;15.50;77.00;;;;;;5033691;28;20123;-69
2023/09/30 02:26:48;;;;;;;14.63;5.57;;;15.50;77.00;;;;;;5034185;28;20087;-69
2023/09/30 02:29:14;;;;;;;14.40;6.35;;;15.50;77.00;;;;;;5036075;28;20021;-69
2023/09/30 02:31:41;;;;;;;14.70;5.82;;;15.50;77.00;;;;;;5033110;28;20091;-69
2023/09/30 02:34:07;;;;;;;11.10;5.70;;;15.50;77.00;;;;;;5033033;28;20029;-69
2023/09/30 02:36:33;;;;;;;13.40;6.18;;;15.50;77.10;;;;;;5039415;28;20029;-69
2023/09/30 02:39:00;;;;;;;11.60;5.57;;;15.50;77.10;;;;;;5032639;28;20442;-67
2023/09/30 02:41:26;;;;;;;13.13;5.78;;;15.50;77.20;;;;;;5031511;28;20061;-69
2023/09/30 02:43:52;;;;;;;14.43;5.90;;;15.50;77.20;;;;;;5032210;28;20097;-69
2023/09/30 02:46:18;;;;;;;12.45;6.38;;;15.50;77.40;;;;;;5032868;28;20021;-69
2023/09/30 02:48:43;;;;;;;17.10;6.35;;;15.50;77.40;;;;;;5034962;28;20132;-69
2023/09/30 02:51:11;;;;;;;13.32;6.25;;;15.50;77.40;;;;;;5032115;28;20040;-67
2023/09/30 02:53:37;;;;;;;13.52;6.00;;;15.50;77.50;;;;;;5032705;28;20100;-67
2023/09/30 02:56:04;;;;;;;12.90;6.10;;;15.50;77.60;;;;;;5031094;28;20040;-69
2023/09/30 02:58:31;;;;;;;12.60;6.55;;;15.50;77.60;;;;;;5045651;28;20036;-69
2023/09/30 03:00:56;;;;;;;15.57;6.90;;;15.60;77.70;;;;;;5031902;28;20029;-69
2023/09/30 03:03:25;;;;;;;14.07;6.75;;;15.60;77.70;;;;;;5013650;28;20113;-69
2023/09/30 03:05:51;;;;;;;13.40;6.68;;;15.60;77.80;;;;;;5031032;28;20469;-69
2023/09/30 03:08:17;;;;;;;13.20;6.15;;;15.60;77.80;;;;;;5034312;28;20014;-69
2023/09/30 03:10:43;;;;;;;15.40;7.70;;;15.60;77.80;;;;;;5032721;28;20040;-69
2023/09/30 03:13:09;;;;;;;11.73;6.53;;;15.60;77.90;;;;;;5032960;28;20107;-69
2023/09/30 03:15:38;;;;;;;14.07;6.47;;;15.60;77.90;;;;;;5032248;28;20029;-69
2023/09/30 03:18:05;;;;;;;13.63;6.78;;;15.60;78.00;;;;;;5030771;28;20132;-69
2023/09/30 03:20:31;;;;;;;15.60;7.53;;;15.60;78.00;;;;;;5032078;28;20421;-69
2023/09/30 03:22:57;;;;;;;13.93;6.57;;;15.60;78.10;;;;;;5030479;28;20046;-69
2023/09/30 03:25:23;;;;;;;18.35;7.72;;;15.70;78.10;;;;;;5033510;28;20025;-69
2023/09/30 03:27:49;;;;;;;13.18;6.65;;;15.70;78.20;;;;;;5033081;28;20357;-69
2023/09/30 03:30:16;;;;;;;13.05;6.47;;;15.70;78.20;;;;;;5033079;28;20407;-69
2023/09/30 03:32:42;;;;;;;15.52;7.22;;;15.70;78.20;;;;;;5030419;28;20064;-69
2023/09/30 03:35:18;;;;;;;14.25;6.97;;;15.70;78.10;;;;;;5031350;28;20033;-70
2023/09/30 03:37:48;;;;;;;13.93;7.30;;;15.70;78.20;;;;;;5029730;28;20075;-69
2023/09/30 03:40:18;;;;;;;12.40;6.25;;;15.70;78.10;;;;;;5045597;28;20053;-69
2023/09/30 03:42:44;;;;;;;15.85;7.72;;;15.70;78.10;;;;;;5031201;28;20072;-69
2023/09/30 03:45:11;;;;;;;12.27;7.18;;;15.70;78.20;;;;;;5032264;28;20109;-69
2023/09/30 03:47:38;;;;;;;15.05;7.53;;;15.70;78.20;;;;;;5033528;28;20022;-69
2023/09/30 03:50:05;;;;;;;15.60;8.07;;;15.60;78.80;;;;;;5046475;28;20036;-69
2023/09/30 03:52:33;;;;;;;12.38;6.80;;;15.60;78.20;;;;;;5046499;28;20044;-69
2023/09/30 03:55:04;;;;;;;13.30;6.57;;;15.60;78.20;;;;;;5036262;28;20029;-69
2023/09/30 03:57:34;;;;;;;16.58;7.65;;;15.60;78.90;;;;;;5036760;28;20033;-69
2023/09/30 04:00:00;;;;;;;14.02;7.55;;;15.60;78.30;;;;;;5038333;28;20036;-69
2023/09/30 04:02:27;;;;;;;13.38;7.65;;;15.60;78.40;;;;;;5042632;28;20022;-69
2023/09/30 04:04:53;;;;;;;11.82;6.97;;;15.60;78.40;;;;;;5034274;28;20039;-69
2023/09/30 04:07:21;;;;;;;14.20;7.65;;;15.60;78.40;;;;;;5033397;28;20126;-69
2023/09/30 04:09:47;;;;;;;16.90;8.85;;;15.60;78.40;;;;;;5036627;28;20031;-69
2023/09/30 04:12:13;;;;;;;14.82;7.53;;;15.60;78.40;;;;;;5027947;28;20049;-69
2023/09/30 04:14:39;;;;;;;15.30;7.50;;;15.60;78.40;;;;;;5035441;28;20119;-69
2023/09/30 04:17:05;;;;;;;13.50;7.47;;;15.60;78.40;;;;;;5033651;28;20441;-69
2023/09/30 04:19:30;;;;;;;18.83;8.63;;;15.60;78.40;;;;;;5033825;28;20117;-69
2023/09/30 04:21:57;;;;;;;13.98;8.18;;;15.60;78.40;;;;;;5036836;28;20060;-69
2023/09/30 04:24:22;;;;;;;17.13;7.97;;;15.60;78.40;;;;;;5036964;28;20033;-69
2023/09/30 04:26:50;;;;;;;17.08;8.68;;;15.60;78.40;;;;;;5034651;28;20040;-69
2023/09/30 04:29:16;;;;;;;14.18;8.40;;;15.60;78.50;;;;;;5033461;28;20366;-69
2023/09/30 04:31:42;;;;;;;16.00;8.70;;;15.60;78.50;;;;;;5018850;28;20018;-69
2023/09/30 04:34:08;;;;;;;15.30;7.65;;;15.60;78.50;;;;;;5034715;28;20048;-69
2023/09/30 04:36:35;;;;;;;13.80;8.10;;;15.60;78.60;;;;;;5034098;28;20132;-68
2023/09/30 04:39:00;;;;;;;14.30;7.45;;;15.60;78.60;;;;;;5033176;28;20029;-68
2023/09/30 04:41:26;;;;;;;14.43;9.00;;;15.60;78.50;;;;;;5044015;28;20104;-68
2023/09/30 04:43:52;;;;;;;13.95;7.55;;;15.60;78.60;;;;;;5034649;28;20110;-68
2023/09/30 04:46:20;;;;;;;15.38;8.63;;;15.60;78.60;;;;;;5034060;28;20057;-68
2023/09/30 04:48:48;;;;;;;16.95;8.93;;;15.60;78.60;;;;;;5033449;28;20038;-68
2023/09/30 04:51:18;;;;;;;15.07;8.95;;;15.50;78.60;;;;;;5034635;28;20021;-68
2023/09/30 04:53:46;;;;;;;13.70;8.35;;;15.50;78.60;;;;;;5033965;28;20331;-68
2023/09/30 04:56:13;;;;;;;15.68;8.98;;;15.50;78.70;;;;;;5036286;28;20090;-68
2023/09/30 04:58:38;;;;;;;14.48;9.25;;;15.50;78.80;;;;;;5032226;28;20026;-68
2023/09/30 05:01:04;;;;;;;13.57;8.18;;;15.50;78.80;;;;;;5033762;28;20044;-68
2023/09/30 05:03:30;;;;;;;15.07;9.15;;;15.60;78.90;;;;;;5034091;28;20029;-68
2023/09/30 05:05:56;;;;;;;16.17;8.88;;;15.60;78.90;;;;;;5031686;28;20024;-68
2023/09/30 05:08:25;;;;;;;16.85;9.73;;;15.60;78.90;;;;;;5036598;28;20091;-68
2023/09/30 05:10:53;;;;;;;13.40;8.60;;;15.60;79.00;;;;;;5036442;28;20331;-68
2023/09/30 05:13:19;;;;;;;17.85;10.00;;;15.60;79.70;;;;;;5032084;28;20086;-69
2023/09/30 05:15:45;;;;;;;16.85;10.40;;;15.60;79.00;;;;;;5016334;28;20025;-68
2023/09/30 05:18:11;;;;;;;15.98;9.00;;;15.60;79.00;;;;;;5034769;28;20053;-69
2023/09/30 05:20:38;;;;;;;17.65;9.73;;;15.60;79.00;;;;;;5051670;28;20030;-68
2023/09/30 05:23:06;;;;;;;15.80;9.23;;;15.60;79.00;;;;;;5038787;28;20124;-69
2023/09/30 05:25:32;;;;;;;16.92;9.27;;;15.60;79.00;;;;;;5055521;28;20021;-68
2023/09/30 05:27:58;;;;;;;15.20;8.93;;;15.60;79.00;;;;;;5040284;28;20176;-68
2023/09/30 05:30:24;;;;;;;17.45;9.73;;;15.60;79.10;;;;;;5034974;28;20018;-68
2023/09/30 05:32:52;;;;;;;16.77;10.43;;;15.60;79.10;;;;;;5034756;28;20029;-68
2023/09/30 05:35:18;;;;;;;15.25;9.00;;;15.60;79.10;;;;;;5043273;28;20025;-68
2023/09/30 05:37:46;;;;;;;15.60;9.02;;;15.60;79.10;;;;;;5041813;28;20025;-68
2023/09/30 05:40:22;;;;;;;16.70;10.00;;;15.60;79.20;;;;;;5049724;28;20033;-68
2023/09/30 05:42:55;;;;;;;16.08;9.85;;;15.60;79.20;;;;;;5046359;28;20037;-68
2023/09/30 05:45:23;;;;;;;14.88;8.98;;;15.60;79.20;;;;;;5066101;28;20212;-68
2023/09/30 05:47:49;;;;;;;16.95;8.80;;;15.60;79.20;;;;;;5039677;28;20104;-68
2023/09/30 05:50:16;;;;;;;15.02;9.68;;;15.60;79.30;;;;;;5037773;28;20039;-69
2023/09/30 05:52:44;;;;;;;16.67;8.95;;;15.60;79.30;;;;;;5044262;28;20090;-69
2023/09/30 05:55:10;;;;;;;16.27;9.23;;;15.60;79.30;;;;;;5041053;28;20415;-68
2023/09/30 05:57:36;;;;;;;16.13;9.30;;;15.60;79.30;;;;;;5042809;28;20073;-69
2023/09/30 06:00:28;;;;;;;16.20;9.02;;;15.60;79.20;;;;;;5036970;28;20033;-68
2023/09/30 06:02:52;;;;;;;18.15;9.07;;;15.60;79.20;;;;;;5025064;28;20048;-68
2023/09/30 06:05:22;;;;;;;16.52;9.15;;;15.60;79.20;;;;;;5042198;28;20115;-67
2023/09/30 06:07:48;;;;;;;14.48;8.88;;;15.70;79.20;;;;;;5041071;28;20095;-67
2023/09/30 06:10:18;;;;;;;14.95;8.98;;;15.70;79.80;;;;;;5033039;28;20469;-67
2023/09/30 06:12:48;;;;;;;16.48;9.43;;;15.70;79.10;;;;;;5036917;28;20033;-67
2023/09/30 06:15:15;;;;;;;16.85;8.73;;;15.70;79.10;;;;;;5026275;28;20112;-67
2023/09/30 06:17:41;;;;;;;15.18;8.90;;;15.70;79.00;;;;;;5048170;28;20434;-67
2023/09/30 06:20:09;;;;;;;16.10;9.18;;;15.70;79.00;;;;;;5032731;28;20018;-67
2023/09/30 06:22:35;;;;;;;14.60;9.07;;;15.70;79.00;;;;;;5033276;28;20030;-67
2023/09/30 06:25:03;;;;;;;14.35;8.65;;;15.70;79.00;;;;;;5033273;28;20040;-67
2023/09/30 06:27:29;;;;;;;15.60;9.07;;;15.70;79.30;;;;;;5045467;28;20025;-67
2023/09/30 06:29:55;;;;;;;14.93;8.80;;;15.80;79.00;;;;;;5029154;28;20103;-66
2023/09/30 06:32:21;;;;;;;13.88;8.95;;;15.80;79.00;;;;;;5033051;28;20451;-67
2023/09/30 06:34:47;;;;;;;16.17;9.85;;;15.80;79.00;;;;;;5033391;28;20021;-67
2023/09/30 06:37:13;;;;;;;14.70;9.43;;;15.80;78.90;;;;;;5031478;28;20072;-67
2023/09/30 06:39:39;;;;;;;14.98;9.82;;;15.80;78.90;;;;;;5031993;28;20025;-67
2023/09/30 06:42:07;;;;;;;14.95;8.85;;;15.90;78.90;;;;;;5032155;28;20096;-67
2023/09/30 06:44:32;;;;;;;13.48;7.85;;;15.90;78.90;;;;;;5032623;28;20033;-67
2023/09/30 06:46:58;;;;;;;16.75;9.15;;;15.90;78.80;;;;;;5048389;28;20091;-66
2023/09/30 06:49:24;;;;;;;14.80;9.07;;;15.90;78.80;;;;;;5026504;28;20517;-67
2023/09/30 06:51:49;;;;;;;15.35;9.52;;;16.00;78.90;;;;;;5041089;28;20025;-67
2023/09/30 06:54:15;;;;;;;16.65;9.25;;;16.00;78.80;;;;;;5036425;28;20025;-67
2023/09/30 06:56:41;;;;;;;14.55;8.90;;;16.00;78.90;;;;;;5050768;28;20163;-67
2023/09/30 06:59:07;;;;;;;16.08;9.63;;;16.00;78.90;;;;;;5031818;28;20038;-67
2023/09/30 07:01:32;;;;;;;15.38;9.02;;;16.00;78.80;;;;;;5041563;28;20045;-67
2023/09/30 07:03:58;;;;;;;16.98;10.00;;;16.10;78.90;;;;;;5027573;28;20487;-67
2023/09/30 07:06:25;;;;;;;15.25;9.85;;;16.10;78.80;;;;;;5035748;28;20366;-68
2023/09/30 07:08:51;;;;;;;18.83;9.05;;;16.10;78.80;;;;;;5039742;28;20025;-67
2023/09/30 07:11:17;;;;;;;15.48;9.15;;;16.10;78.70;;;;;;5038479;28;20034;-68
2023/09/30 07:13:42;;;;;;;14.55;9.50;;;16.20;78.80;;;;;;5037972;28;20119;-68
2023/09/30 07:16:08;;;;;;;17.10;10.18;;;16.20;78.80;;;;;;5052440;28;20060;-68
2023/09/30 07:18:34;;;;;;;15.85;9.50;;;16.20;78.80;;;;;;5046481;28;20400;-68
2023/09/30 07:20:59;;;;;;;14.85;8.23;;;16.20;78.80;;;;;;5037977;28;20113;-68
2023/09/30 07:23:25;;;;;;;15.82;9.13;;;16.30;78.80;;;;;;5048566;28;20067;-68
2023/09/30 07:25:51;;;;;;;13.85;9.00;;;16.30;78.70;;;;;;5045233;28;20048;-68
2023/09/30 07:28:17;;;;;;;13.50;8.85;;;16.40;78.80;;;;;;5057736;28;20422;-68
2023/09/30 07:30:44;;;;;;;15.25;9.68;;;16.50;78.70;;;;;;5044272;28;20346;-68
2023/09/30 07:33:10;;;;;;;15.52;9.73;;;16.50;78.70;;;;;;5042231;28;20048;-68
2023/09/30 07:35:38;;;;;;;15.40;9.07;;;16.50;78.60;;;;;;5055471;28;20111;-68
2023/09/30 07:38:04;;;;;;;16.77;9.25;;;16.60;78.60;;;;;;5056676;28;20056;-68
2023/09/30 07:40:30;;;;;;;15.65;9.38;;;16.70;78.50;;;;;;5057721;28;20426;-68
2023/09/30 07:42:56;;;;;;;15.07;9.10;;;16.70;78.30;;;;;;5053724;28;20036;-69
2023/09/30 07:45:21;;;;;;;18.98;10.02;;;16.80;78.20;;;;;;5042153;28;20501;-68
2023/09/30 07:47:47;;;;;;;16.33;9.65;;;16.90;78.10;;;;;;5043459;28;20073;-68
2023/09/30 07:50:13;;;;;;;15.27;9.30;;;17.00;77.90;;;;;;5045317;28;20024;-68
2023/09/30 07:52:40;;;;;;;16.02;8.45;;;17.10;77.80;;;;;;5029484;28;20066;-68
2023/09/30 07:55:06;;;;;;;15.88;9.73;;;17.20;77.60;;;;;;5035225;28;20022;-66
2023/09/30 07:57:33;;;;;;;18.70;10.52;;;17.40;77.40;;;;;;5048292;28;20026;-66
2023/09/30 07:59:59;;;;;;;17.80;8.57;;;17.40;77.10;;;;;;5034021;28;20025;-66
2023/09/30 08:02:27;;;;;;;14.68;8.90;;;17.50;77.00;;;;;;5033764;28;20033;-68
2023/09/30 08:04:53;;;;;;;16.98;9.48;;;17.60;76.90;;;;;;5033360;28;20036;-68
2023/09/30 08:07:19;;;;;;;14.02;8.77;;;17.70;76.70;;;;;;5034036;28;20034;-67
2023/09/30 08:09:45;;;;;;;16.27;8.68;;;17.80;76.50;;;;;;5035555;28;20480;-67
2023/09/30 08:12:10;;;;;;;20.70;9.80;;;17.90;76.30;;;;;;5036893;28;20040;-67
2023/09/30 08:14:36;;;;;;;16.45;9.05;;;18.00;76.10;;;;;;5037317;28;20396;-67
2023/09/30 08:17:02;;;;;;;15.93;9.23;;;18.10;75.90;;;;;;5035481;28;20044;-67
2023/09/30 08:19:28;;;;;;;16.80;9.07;;;18.20;75.70;;;;;;5031222;28;20038;-67
2023/09/30 08:21:54;;;;;;;15.18;8.63;;;18.30;75.50;;;;;;5035080;28;20083;-67
2023/09/30 08:24:19;;;;;;;16.70;9.15;;;18.50;75.30;;;;;;5033473;28;20115;-67
2023/09/30 08:26:45;;;;;;;16.23;9.43;;;18.60;75.00;;;;;;5033045;28;20036;-67
2023/09/30 08:29:11;;;;;;;16.40;8.93;;;18.70;74.70;;;;;;5034325;28;20018;-67
2023/09/30 08:31:37;;;;;;;16.85;8.88;;;18.70;74.50;;;;;;5033538;28;20057;-67
2023/09/30 08:34:03;;;;;;;14.90;8.48;;;18.90;74.40;;;;;;5033917;28;20049;-67
2023/09/30 08:36:30;;;;;;;18.60;9.68;;;19.00;74.00;;;;;;5032693;28;20052;-67
2023/09/30 08:38:56;;;;;;;16.30;9.48;;;19.10;73.60;;;;;;5032780;28;20362;-67
2023/09/30 08:41:32;;;;;;;14.85;8.60;;;19.20;73.30;;;;;;5033482;28;20085;-68
2023/09/30 08:44:00;;;;;;;17.67;8.57;;;19.40;73.00;;;;;;5031347;28;20037;-68
2023/09/30 08:46:34;;;;;;;15.55;8.20;;;19.50;72.60;;;;;;5034564;28;20033;-68
2023/09/30 08:49:05;;;;;;;14.25;8.05;;;19.70;72.30;;;;;;5034082;28;20030;-72
2023/09/30 08:51:31;;;;;;;;;;;19.90;71.90;;;;;;5038497;28;20087;-68
2023/09/30 08:53:58;;;;;;;15.68;7.50;;;20.00;71.70;;;;;;5037034;28;20008;-67
2023/09/30 08:56:28;;;;;;;14.50;7.93;;;20.20;71.30;;;;;;5035101;28;20427;-68
2023/09/30 08:58:58;;;;;;;15.00;8.43;;;20.30;71.60;;;;;;5033130;28;20029;-67
2023/09/30 09:01:31;;;;;;;15.65;8.10;;;20.40;70.50;;;;;;5034802;28;20478;-67
2023/09/30 09:03:57;;;;;;;14.88;8.20;;;20.50;70.20;;;;;;5043763;28;20032;-67
2023/09/30 09:06:24;;;;;;;13.65;7.10;;;20.60;69.90;;;;;;5038957;28;20074;-68
2023/09/30 09:08:51;;;;;;;12.43;7.07;;;20.80;69.80;;;;;;5029530;28;20025;-68
2023/09/30 09:11:18;;;;;;;12.70;7.18;;;20.90;69.60;;;;;;5030509;28;20063;-68
2023/09/30 09:13:55;;;;;;;14.05;7.40;;;21.00;69.40;;;;;;5030549;28;20132;-68
2023/09/30 09:16:22;;;;;;;16.60;8.27;;;21.10;69.00;;;;;;5031258;28;20370;-68
2023/09/30 09:18:48;;;;;;;13.73;6.85;;;21.20;68.60;;;;;;5026472;28;20050;-68
2023/09/30 09:21:16;;;;;;;13.13;7.60;;;21.30;68.40;;;;;;5031170;28;20426;-68
2023/09/30 09:23:50;;;;;;;16.23;7.03;;;21.30;68.30;;;;;;5029879;28;20464;-68
2023/09/30 09:26:26;;;;;;;13.57;7.30;;;21.30;68.00;;;;;;5028427;28;20025;-68
2023/09/30 09:29:04;;;;;;;12.00;6.78;;;21.40;67.90;;;;;;5030194;28;20059;-68
2023/09/30 09:31:35;;;;;;;15.63;7.55;;;21.40;67.60;;;;;;5044323;28;20030;-68
2023/09/30 09:34:03;;;;;;;15.93;7.40;;;21.40;67.40;;;;;;5028422;28;20030;-69
2023/09/30 09:36:43;;;;;;;13.82;7.07;;;21.50;67.60;;;;;;5029294;28;20539;-67
2023/09/30 09:39:13;;;;;;;16.33;7.90;;;21.50;67.30;;;;;;5040953;28;20033;-68
2023/09/30 09:41:52;;;;;;;14.45;6.95;;;21.60;67.30;;;;;;5030349;28;20520;-68
2023/09/30 09:44:22;;;;;;;14.60;7.38;;;21.60;67.00;;;;;;5030023;28;20429;-68
2023/09/30 09:46:50;;;;;;;16.25;7.72;;;21.60;66.90;;;;;;5028688;28;20026;-68
2023/09/30 09:49:20;;;;;;;12.98;6.72;;;21.60;66.90;;;;;;5030270;28;20033;-68
2023/09/30 09:51:47;;;;;;;15.53;7.80;;;21.60;66.90;;;;;;5032203;28;20029;-68
2023/09/30 09:54:14;;;;;;;16.05;7.22;;;21.60;66.90;;;;;;5020963;28;20033;-68
2023/09/30 09:56:41;;;;;;;12.38;6.45;;;21.70;66.90;;;;;;5044710;28;20021;-69
2023/09/30 09:59:09;;;;;;;13.55;6.35;;;21.80;66.80;;;;;;5031015;28;20033;-69
2023/09/30 10:01:35;;;;;;;14.68;6.38;;;21.90;66.80;;;;;;5032369;28;20052;-69
2023/09/30 10:04:02;;;;;;;14.35;6.15;;;22.00;66.50;;;;;;5031683;28;20095;-69
2023/09/30 10:06:28;;;;;;;12.77;6.28;;;22.10;66.40;;;;;;5032894;28;20037;-69
2023/09/30 10:08:55;;;;;;;13.95;7.05;;;22.20;66.10;;;;;;5028623;28;20033;-69
2023/09/30 10:11:22;;;;;;;16.27;6.10;;;22.20;65.90;;;;;;5024785;28;20036;-69
2023/09/30 10:13:57;;;;;;;11.80;5.63;;;22.20;65.80;;;;;;5042746;28;20026;-69
2023/09/30 10:16:39;;;;;;;12.75;5.93;;;22.20;65.70;;;;;;5030101;28;20029;-69
2023/09/30 10:19:08;;;;;;;15.05;6.30;;;22.20;65.50;;;;;;5029071;28;20140;-69
2023/09/30 10:21:34;;;;;;;13.77;6.57;;;22.20;65.40;;;;;;5043519;28;20032;-69
2023/09/30 10:24:23;;;;;;;12.07;6.45;;;22.10;65.40;;;;;;5031972;28;20040;-69
2023/09/30 10:27:32;;;;;;;12.65;5.60;;;22.10;65.40;;;;;;5030163;28;20347;-69
2023/09/30 10:30:06;;;;;;;11.57;5.47;;;22.20;65.30;;;;;;5030734;28;20021;-69
2023/09/30 10:32:50;;;;;;;10.18;6.00;;;22.10;65.40;;;;;;5025005;28;20033;-69
2023/09/30 10:35:20;;;;;;;12.85;5.50;;;22.00;65.50;;;;;;5035483;28;20043;-69
2023/09/30 10:37:46;;;;;;;13.65;5.63;;;21.90;65.60;;;;;;5044519;28;20095;-69
2023/09/30 10:40:29;;;;;;;10.95;4.90;;;22.00;65.40;;;;;;5034511;28;20026;-69
2023/09/30 10:42:56;;;;;;;13.05;6.00;;;22.20;65.10;;;;;;5030348;28;20022;-70
2023/09/30 10:45:44;;;;;;;11.43;5.32;;;22.00;65.30;;;;;;5033025;28;20386;-69
2023/09/30 10:48:25;;;;;;;12.95;5.25;;;21.80;65.40;;;;;;5051854;28;20330;-69
2023/09/30 10:51:04;;;;;;;13.88;4.80;;;21.70;65.60;;;;;;5048760;28;20029;-70
2023/09/30 10:53:30;;;;;;;13.73;5.57;;;21.70;65.60;;;;;;5053527;28;20346;-70
2023/09/30 10:55:57;;;;;;;11.35;4.50;;;21.50;65.70;;;;;;5054197;28;20055;-69
2023/09/30 10:58:42;;;;;;;11.75;4.40;;;21.40;65.90;;;;;;5055859;28;20029;-69
2023/09/30 11:01:08;;;;;;;11.52;4.75;;;21.30;66.00;;;;;;5014236;28;20096;-69
2023/09/30 11:03:34;;;;;;;10.77;3.90;;;21.30;66.00;;;;;;5052621;28;20032;-68
2023/09/30 11:06:00;;;;;;;10.52;3.95;;;21.40;65.90;;;;;;5043230;28;20330;-69
2023/09/30 11:08:29;;;;;;;8.98;3.40;;;21.50;65.50;;;;;;5035415;28;20029;-69
2023/09/30 11:10:56;;;;;;;8.43;3.50;;;21.60;65.10;;;;;;5043855;28;20030;-69
2023/09/30 11:13:22;;;;;;;10.82;3.67;;;21.80;64.60;;;;;;5041517;28;20037;-68
2023/09/30 11:16:01;;;;;;;9.70;4.00;;;21.90;64.00;;;;;;5042799;28;20048;-69
2023/09/30 11:18:26;;;;;;;9.43;3.78;;;21.90;63.60;;;;;;5042371;28;20052;-69
2023/09/30 11:21:07;;;;;;;8.90;4.05;;;21.70;63.90;;;;;;5027688;28;20025;-68
2023/09/30 11:23:33;;;;;;;8.63;3.70;;;21.60;64.00;;;;;;5048672;28;20119;-69
2023/09/30 11:25:59;;;;;;;11.27;3.40;;;21.40;64.40;;;;;;5039468;28;20026;-70
2023/09/30 11:28:35;;;;;;;12.27;3.40;;;21.30;64.70;;;;;;5051881;28;20151;-69
2023/09/30 11:31:02;;;;;;;13.40;4.03;;;21.20;65.10;;;;;;5038932;28;20075;-69
2023/09/30 11:33:28;;;;;;;7.88;3.53;;;21.20;64.40;;;;;;5037162;28;20029;-69
2023/09/30 11:36:02;;;;;;;11.18;3.67;;;21.20;64.00;;;;;;5035471;28;20040;-69
2023/09/30 11:38:31;;;;;;;9.38;2.90;;;21.20;63.80;;;;;;5047644;28;20045;-70
2023/09/30 11:41:05;;;;;;;9.50;3.03;;;21.20;63.70;;;;;;5045013;28;20498;-71
2023/09/30 11:44:16;;;;;;;8.25;2.80;;;21.10;63.80;;;;;;5034476;28;20026;-70
2023/09/30 11:47:04;;;;;;;8.00;2.75;;;21.30;63.20;;;;;;5060388;28;20052;-70
2023/09/30 11:49:38;;;;;;;8.43;2.65;;;21.40;62.80;;;;;;5054953;28;20040;-67
2023/09/30 11:52:09;;;;;;;9.52;2.78;;;21.60;62.40;;;;;;5064229;28;20032;-68
2023/09/30 11:54:42;;;;;;;10.10;3.25;;;21.70;61.70;;;;;;5087755;28;20446;-68
2023/09/30 11:57:09;;;;;;;7.68;3.05;;;21.80;61.40;;;;;;5044114;28;20033;-65
2023/09/30 11:59:36;;;;;;;8.30;2.45;;;21.90;61.30;;;;;;5049801;28;20115;-66
2023/09/30 12:02:03;;;;;;;9.38;2.67;;;22.00;60.90;;;;;;5069898;28;20124;-67
2023/09/30 12:04:29;;;;;;;8.27;2.25;;;22.00;60.50;;;;;;5065826;28;20120;-66
2023/09/30 12:06:56;;;;;;;8.95;2.45;;;22.10;60.20;;;;;;5074426;28;20032;-67
2023/09/30 12:09:25;;;;;;;9.73;2.30;;;22.10;59.80;;;;;;5039193;28;20029;-66
2023/09/30 12:11:51;;;;;;;8.00;2.70;;;22.10;59.40;;;;;;5048266;28;20083;-65
2023/09/30 12:14:17;;;;;;;8.23;2.67;;;22.10;59.30;;;;;;5056304;28;20424;-65
2023/09/30 12:16:45;;;;;;;10.38;2.45;;;22.00;58.90;;;;;;5032645;28;20118;-67
2023/09/30 12:19:13;;;;;;;8.82;2.42;;;21.90;58.80;;;;;;5036139;28;20045;-66
2023/09/30 12:21:40;;;;;;;9.45;2.50;;;21.80;58.80;;;;;;5029339;28;20037;-65
2023/09/30 12:24:08;;;;;;;9.90;2.50;;;21.80;58.80;;;;;;5015770;28;20448;-66
2023/09/30 12:26:35;;;;;;;6.72;2.28;;;21.80;58.80;;;;;;5033248;28;20073;-65
2023/09/30 12:29:01;;;;;;;8.38;2.75;;;21.80;58.80;;;;;;5035766;28;20112;-66
2023/09/30 12:31:27;;;;;;;10.52;2.70;;;21.80;58.80;;;;;;5035697;28;20164;-65
2023/09/30 12:33:54;;;;;;;7.50;2.20;;;21.80;59.00;;;;;;5033503;28;20037;-65
2023/09/30 12:36:24;;;;;;;11.23;2.92;;;21.70;59.30;;;;;;5032970;28;20021;-65
2023/09/30 12:38:50;;;;;;;11.38;3.22;;;21.60;59.40;;;;;;5034290;28;20060;-65
2023/09/30 12:41:15;;;;;;;9.88;3.00;;;21.50;59.60;;;;;;5034124;28;20053;-66
2023/09/30 12:43:41;;;;;;;11.65;2.72;;;21.50;59.70;;;;;;5033882;28;20032;-65